createdAt,value
2019-05-05T00:01:47.763Z,4.37
2019-05-05T00:04:32.138Z,4.27
2019-05-05T00:07:01.735Z,4.40
2019-05-05T00:09:31.412Z,4.43
2019-05-05T00:12:20.157Z,4.50
2019-05-05T00:15:14.824Z,5.37
2019-05-05T00:17:45.024Z,6.73
2019-05-05T00:20:14.765Z,4.47
2019-05-05T00:22:45.496Z,4.50
2019-05-05T00:27:50.389Z,8.57
2019-05-05T00:30:25.040Z,4.90
2019-05-05T00:32:54.976Z,6.10
2019-05-05T00:35:25.304Z,5.03
2019-05-05T00:37:55.086Z,5.20
2019-05-05T00:40:24.967Z,5.53
2019-05-05T00:42:54.767Z,5.87
2019-05-05T00:45:25.257Z,8.37
2019-05-05T00:48:07.489Z,4.80
2019-05-05T00:50:37.246Z,5.20
2019-05-05T00:53:06.910Z,5.93
2019-05-05T00:55:36.665Z,5.30
2019-05-05T00:58:06.305Z,5.13
2019-05-05T01:00:44.251Z,5.80
2019-05-05T01:03:15.244Z,5.53
2019-05-05T01:05:50.698Z,5.50
2019-05-05T01:08:22.176Z,6.47
2019-05-05T01:10:52.035Z,5.23
2019-05-05T01:13:21.695Z,5.17
2019-05-05T01:15:51.563Z,5.83
2019-05-05T01:18:21.314Z,6.10
2019-05-05T01:20:51.071Z,5.00
2019-05-05T01:23:20.666Z,7.90
2019-05-05T01:25:50.443Z,6.60
2019-05-05T01:28:24.926Z,5.30
2019-05-05T01:30:58.103Z,5.70
2019-05-05T01:33:54.196Z,6.07
2019-05-05T01:39:22.020Z,6.27
2019-05-05T01:41:54.911Z,5.77
2019-05-05T01:47:00.148Z,5.30
2019-05-05T01:49:29.963Z,5.40
2019-05-05T01:51:59.648Z,5.27
2019-05-05T01:54:29.305Z,6.60
2019-05-05T01:56:58.884Z,5.33
2019-05-05T01:59:28.803Z,5.13
2019-05-05T02:01:58.510Z,5.10
2019-05-05T02:04:28.249Z,6.40
2019-05-05T02:06:57.939Z,5.37
2019-05-05T02:09:27.539Z,5.20
2019-05-05T02:11:57.193Z,5.90
2019-05-05T02:14:26.749Z,5.30
2019-05-05T02:16:56.511Z,5.50
2019-05-05T02:19:26.187Z,6.77
2019-05-05T02:21:55.903Z,6.47
2019-05-05T02:24:25.480Z,6.03
2019-05-05T02:26:55.299Z,5.60
2019-05-05T02:29:47.516Z,6.40
2019-05-05T02:32:51.437Z,5.80
2019-05-05T02:35:21.271Z,6.57
2019-05-05T02:37:51.908Z,6.03
2019-05-05T02:40:24.387Z,7.10
2019-05-05T02:42:54.949Z,5.83
2019-05-05T02:46:06.198Z,6.27
2019-05-05T02:48:36.574Z,6.20
2019-05-05T02:51:07.189Z,6.33
2019-05-05T02:53:43.961Z,6.80
2019-05-05T02:56:23.771Z,7.07
2019-05-05T02:58:56.371Z,6.10
2019-05-05T03:01:36.420Z,7.37
2019-05-05T03:04:06.723Z,6.70
2019-05-05T03:06:38.458Z,6.20
2019-05-05T03:09:08.151Z,5.97
2019-05-05T03:11:37.898Z,5.87
2019-05-05T03:14:08.526Z,5.60
2019-05-05T03:16:38.975Z,5.40
2019-05-05T03:19:09.146Z,5.17
2019-05-05T03:21:39.170Z,5.97
2019-05-05T03:24:08.911Z,5.13
2019-05-05T03:26:38.922Z,6.03
2019-05-05T03:29:13.841Z,5.73
2019-05-05T03:31:45.696Z,6.17
2019-05-05T03:34:16.476Z,5.50
2019-05-05T03:36:46.274Z,5.00
2019-05-05T03:39:23.564Z,5.77
2019-05-05T03:42:18.707Z,5.57
2019-05-05T03:44:54.552Z,4.53
2019-05-05T03:47:24.924Z,4.80
2019-05-05T03:49:55.628Z,4.77
2019-05-05T03:52:25.570Z,4.93
2019-05-05T03:54:55.263Z,4.43
2019-05-05T03:57:25.606Z,4.93
2019-05-05T03:59:55.494Z,5.20
2019-05-05T04:02:31.326Z,4.93
2019-05-05T04:05:09.327Z,4.83
2019-05-05T04:07:47.298Z,4.87
2019-05-05T04:10:16.987Z,5.70
2019-05-05T04:12:46.955Z,5.27
2019-05-05T04:15:16.862Z,5.07
2019-05-05T04:17:53.581Z,5.23
2019-05-05T04:20:28.138Z,5.50
2019-05-05T04:22:58.317Z,5.27
2019-05-05T04:25:28.014Z,5.20
2019-05-05T04:27:57.691Z,4.83
2019-05-05T04:30:27.263Z,5.20
2019-05-05T04:32:57.069Z,5.53
2019-05-05T04:35:26.676Z,5.73
2019-05-05T04:37:56.356Z,5.40
2019-05-05T04:40:26.182Z,5.37
2019-05-05T04:42:56.014Z,5.43
2019-05-05T04:45:25.702Z,4.97
2019-05-05T04:47:59.918Z,5.60
2019-05-05T04:50:47.825Z,6.70
2019-05-05T04:53:23.975Z,5.33
2019-05-05T04:55:53.667Z,5.10
2019-05-05T04:58:24.282Z,5.00
2019-05-05T05:00:54.717Z,5.03
2019-05-05T05:03:49.387Z,5.70
2019-05-05T05:06:31.531Z,5.17
2019-05-05T05:09:01.218Z,5.37
2019-05-05T05:11:30.807Z,6.10
2019-05-05T05:14:00.539Z,5.77
2019-05-05T05:16:30.191Z,5.30
2019-05-05T05:18:59.947Z,5.50
2019-05-05T05:21:29.636Z,5.77
2019-05-05T05:23:59.304Z,5.57
2019-05-05T05:26:28.832Z,5.10
2019-05-05T05:28:58.578Z,5.67
2019-05-05T05:31:28.221Z,5.40
2019-05-05T05:33:57.918Z,5.73
2019-05-05T05:36:27.467Z,5.03
2019-05-05T05:39:01.111Z,5.70
2019-05-05T05:41:44.106Z,5.80
2019-05-05T05:44:37.482Z,5.43
2019-05-05T05:47:14.945Z,6.40
2019-05-05T05:49:48.475Z,5.77
2019-05-05T05:52:19.170Z,5.87
2019-05-05T05:54:53.451Z,5.90
2019-05-05T05:57:24.083Z,6.20
2019-05-05T05:59:54.863Z,5.90
2019-05-05T06:02:24.586Z,6.60
2019-05-05T06:04:54.410Z,6.77
2019-05-05T06:07:24.509Z,6.53
2019-05-05T06:09:54.339Z,6.13
2019-05-05T06:12:24.592Z,6.90
2019-05-05T06:14:54.463Z,6.50
2019-05-05T06:17:24.166Z,6.33
2019-05-05T06:19:53.853Z,7.13
2019-05-05T06:22:30.951Z,6.43
2019-05-05T06:24:54.978Z,6.57
2019-05-05T06:27:24.543Z,6.30
2019-05-05T06:29:54.412Z,6.83
2019-05-05T06:32:24.261Z,6.17
2019-05-05T06:34:53.965Z,5.87
2019-05-05T06:37:23.849Z,6.60
2019-05-05T06:39:55.796Z,6.07
2019-05-05T06:42:47.659Z,5.27
2019-05-05T06:45:36.683Z,5.60
2019-05-05T06:48:06.463Z,5.80
2019-05-05T06:50:36.166Z,5.63
2019-05-05T06:53:05.866Z,5.10
2019-05-05T06:55:35.587Z,5.10
2019-05-05T06:58:05.277Z,5.47
2019-05-05T07:00:35.063Z,5.57
2019-05-05T07:03:07.714Z,4.87
2019-05-05T07:05:36.205Z,5.17
2019-05-05T07:08:05.924Z,5.63
2019-05-05T07:10:35.675Z,4.37
2019-05-05T07:13:05.296Z,4.80
2019-05-05T07:15:34.934Z,4.77
2019-05-05T07:18:04.507Z,5.53
2019-05-05T07:20:34.726Z,5.53
2019-05-05T07:23:05.446Z,5.37
2019-05-05T07:25:42.856Z,5.70
2019-05-05T07:28:06.641Z,4.90
2019-05-05T07:30:36.338Z,4.90
2019-05-05T07:33:06.146Z,4.53
2019-05-05T07:35:55.365Z,5.43
2019-05-05T07:38:17.780Z,6.43
2019-05-05T07:40:47.690Z,5.10
2019-05-05T07:43:17.521Z,5.20
2019-05-05T07:45:47.453Z,5.67
2019-05-05T07:48:17.035Z,5.67
2019-05-05T07:50:58.169Z,4.63
2019-05-05T07:53:18.351Z,4.67
2019-05-05T07:55:48.366Z,4.63
2019-05-05T07:58:17.997Z,4.93
2019-05-05T08:00:47.904Z,4.63
2019-05-05T08:03:17.610Z,4.80
2019-05-05T08:05:47.375Z,5.13
2019-05-05T08:08:17.059Z,4.53
2019-05-05T08:10:46.838Z,3.40
2019-05-05T08:13:16.582Z,3.83
2019-05-05T08:15:59.043Z,4.20
2019-05-05T08:18:41.171Z,3.63
2019-05-05T08:21:10.898Z,3.37
2019-05-05T08:23:58.435Z,2.97
2019-05-05T08:26:50.350Z,3.70
2019-05-05T08:29:38.521Z,3.33
2019-05-05T08:32:16.396Z,3.33
2019-05-05T08:34:57.545Z,3.20
2019-05-05T08:37:17.411Z,3.30
2019-05-05T08:39:46.974Z,3.33
2019-05-05T08:42:16.662Z,3.30
2019-05-05T08:44:46.287Z,3.30
2019-05-05T08:47:16.234Z,2.90
2019-05-05T08:49:45.767Z,3.50
2019-05-05T08:52:15.375Z,2.93
2019-05-05T08:54:45.031Z,3.50
2019-05-05T08:57:14.938Z,3.57
2019-05-05T08:59:44.604Z,3.10
2019-05-05T09:02:15.107Z,2.90
2019-05-05T09:04:44.866Z,2.50
2019-05-05T09:07:14.674Z,2.40
2019-05-05T09:09:44.552Z,2.57
2019-05-05T09:15:04.392Z,1.83
2019-05-05T09:20:45.591Z,2.27
2019-05-05T09:23:15.294Z,2.00
2019-05-05T09:26:09.936Z,2.20
2019-05-05T09:28:53.388Z,2.40
2019-05-05T09:31:23.956Z,1.83
2019-05-05T09:33:53.755Z,2.00
2019-05-05T09:36:24.300Z,2.10
2019-05-05T09:38:54.111Z,3.27
2019-05-05T09:41:23.656Z,3.33
2019-05-05T09:43:53.890Z,2.60
2019-05-05T09:46:23.596Z,2.33
2019-05-05T09:48:54.183Z,2.10
2019-05-05T09:51:24.232Z,3.53
2019-05-05T09:53:54.268Z,2.90
2019-05-05T09:56:23.832Z,2.93
2019-05-05T09:58:54.501Z,3.20
2019-05-05T10:01:24.625Z,2.70
2019-05-05T10:03:57.379Z,3.13
2019-05-05T10:06:27.047Z,2.73
2019-05-05T10:08:56.630Z,3.57
2019-05-05T10:11:26.414Z,2.47
2019-05-05T10:13:56.075Z,2.67
2019-05-05T10:16:25.746Z,2.70
2019-05-05T10:18:55.429Z,2.90
2019-05-05T10:21:24.991Z,2.67
2019-05-05T10:23:56.359Z,3.70
2019-05-05T10:26:25.978Z,2.93
2019-05-05T10:28:55.646Z,3.20
2019-05-05T10:31:25.254Z,3.60
2019-05-05T10:33:58.302Z,3.00
2019-05-05T10:36:27.902Z,3.47
2019-05-05T10:39:04.428Z,2.80
2019-05-05T10:41:34.094Z,2.87
2019-05-05T10:44:03.948Z,2.80
2019-05-05T10:46:34.180Z,2.90
2019-05-05T10:49:04.202Z,3.10
2019-05-05T10:51:34.590Z,3.17
2019-05-05T10:54:04.750Z,2.97
2019-05-05T10:56:34.624Z,4.03
2019-05-05T10:59:04.510Z,3.13
2019-05-05T11:01:34.233Z,2.80
2019-05-05T11:04:04.011Z,2.83
2019-05-05T11:06:33.993Z,3.23
2019-05-05T11:09:05.205Z,2.70
2019-05-05T11:11:34.997Z,3.07
2019-05-05T11:14:05.213Z,3.13
2019-05-05T11:16:35.054Z,3.60
2019-05-05T11:19:05.046Z,2.67
2019-05-05T11:21:34.809Z,2.70
2019-05-05T11:24:04.728Z,2.60
2019-05-05T11:26:34.515Z,2.83
2019-05-05T11:29:04.407Z,3.27
2019-05-05T11:31:34.405Z,2.97
2019-05-05T11:34:17.209Z,3.20
2019-05-05T11:36:54.430Z,2.90
2019-05-05T11:39:24.430Z,3.50
2019-05-05T11:41:54.791Z,3.20
2019-05-05T11:44:24.729Z,3.77
2019-05-05T11:46:54.834Z,27.30
2019-05-05T11:49:24.724Z,9.10
2019-05-05T11:51:54.634Z,6.23
2019-05-05T11:54:24.760Z,4.80
2019-05-05T11:56:54.556Z,4.80
2019-05-05T11:59:26.615Z,22.70
2019-05-05T12:01:56.414Z,9.27
2019-05-05T12:04:26.154Z,7.47
2019-05-05T12:06:55.960Z,9.33
2019-05-05T12:09:38.543Z,9.80
2019-05-05T12:12:08.280Z,8.83
2019-05-05T12:14:38.963Z,10.63
2019-05-05T12:17:08.833Z,4.63
2019-05-05T12:19:38.407Z,5.10
2019-05-05T12:22:08.520Z,3.93
2019-05-05T12:24:44.160Z,4.40
2019-05-05T12:27:33.918Z,2.60
2019-05-05T12:30:07.253Z,3.70
2019-05-05T12:32:36.922Z,2.83
2019-05-05T12:35:06.795Z,2.50
2019-05-05T12:37:36.363Z,2.40
2019-05-05T12:40:07.265Z,2.50
2019-05-05T12:42:36.992Z,3.03
2019-05-05T12:45:08.876Z,3.40
2019-05-05T12:47:46.813Z,2.90
2019-05-05T12:50:16.547Z,2.50
2019-05-05T12:52:46.198Z,3.10
2019-05-05T12:55:15.883Z,3.17
2019-05-05T12:57:45.555Z,2.67
2019-05-05T13:00:15.727Z,3.40
2019-05-05T13:02:45.418Z,2.83
2019-05-05T13:05:15.282Z,3.80
2019-05-05T13:07:44.991Z,3.87
2019-05-05T13:10:16.615Z,3.30
2019-05-05T13:12:46.263Z,3.43
2019-05-05T13:15:16.169Z,2.97
2019-05-05T13:17:45.845Z,2.40
2019-05-05T13:20:24.675Z,3.97
2019-05-05T13:23:04.174Z,2.90
2019-05-05T13:25:59.271Z,3.30
2019-05-05T13:28:27.577Z,2.83
2019-05-05T13:30:57.362Z,3.00
2019-05-05T13:33:27.063Z,3.00
2019-05-05T13:35:57.111Z,2.60
2019-05-05T13:38:27.085Z,3.87
2019-05-05T13:40:56.855Z,3.13
2019-05-05T13:43:26.625Z,3.40
2019-05-05T13:46:13.900Z,2.87
2019-05-05T13:48:44.401Z,4.00
2019-05-05T13:51:14.795Z,3.80
2019-05-05T13:53:45.532Z,4.77
2019-05-05T13:56:15.594Z,16.53
2019-05-05T13:58:45.463Z,12.90
2019-05-05T14:01:15.461Z,15.43
2019-05-05T14:03:45.343Z,10.20
2019-05-05T14:06:15.179Z,5.23
2019-05-05T14:08:44.925Z,5.50
2019-05-05T14:11:14.869Z,8.77
2019-05-05T14:13:46.635Z,3.87
2019-05-05T14:16:16.055Z,4.10
2019-05-05T14:18:45.668Z,4.10
2019-05-05T14:21:15.676Z,4.50
2019-05-05T14:24:04.764Z,6.00
2019-05-05T14:26:35.297Z,10.97
2019-05-05T14:29:05.655Z,9.80
2019-05-05T14:31:37.379Z,6.87
2019-05-05T14:34:15.283Z,5.50
2019-05-05T14:37:02.580Z,5.43
2019-05-05T14:39:34.043Z,7.50
2019-05-05T14:42:04.453Z,6.87
2019-05-05T14:44:34.444Z,4.10
2019-05-05T14:47:04.314Z,4.60
2019-05-05T14:49:34.124Z,7.03
2019-05-05T14:52:04.427Z,4.90
2019-05-05T14:54:34.293Z,5.80
2019-05-05T14:57:05.561Z,15.27
2019-05-05T14:59:37.051Z,29.63
2019-05-05T15:02:07.120Z,15.53
2019-05-05T15:04:38.533Z,15.73
2019-05-05T15:07:14.455Z,13.38
2019-05-05T15:09:51.061Z,6.77
2019-05-05T15:12:39.971Z,2.20
2019-05-05T15:15:09.893Z,2.87
2019-05-05T15:17:39.515Z,3.20
2019-05-05T15:20:09.405Z,3.60
2019-05-05T15:22:39.039Z,4.20
2019-05-05T15:25:08.635Z,2.50
2019-05-05T15:27:38.286Z,2.20
2019-05-05T15:30:07.974Z,2.37
2019-05-05T15:32:37.649Z,2.70
2019-05-05T15:35:07.268Z,3.73
2019-05-05T15:37:36.920Z,6.37
2019-05-05T15:40:06.454Z,3.37
2019-05-05T15:42:36.326Z,2.30
2019-05-05T15:45:05.984Z,2.77
2019-05-05T15:47:35.634Z,1.97
2019-05-05T15:50:05.557Z,2.70
2019-05-05T15:52:35.491Z,3.43
2019-05-05T15:55:05.243Z,3.23
2019-05-05T15:57:34.834Z,3.63
2019-05-05T16:00:04.523Z,3.80
2019-05-05T16:02:36.007Z,3.73
2019-05-05T16:05:05.653Z,5.20
2019-05-05T16:07:35.312Z,3.80
2019-05-05T16:10:06.029Z,2.40
2019-05-05T16:12:39.413Z,3.57
2019-05-05T16:15:44.614Z,5.37
2019-05-05T16:18:21.892Z,3.23
2019-05-05T16:20:57.168Z,4.10
2019-05-05T16:23:30.870Z,3.77
2019-05-05T16:26:00.454Z,4.03
2019-05-05T16:28:30.519Z,3.93
2019-05-05T16:31:00.219Z,2.80
2019-05-05T16:33:29.835Z,4.60
2019-05-05T16:35:59.415Z,6.40
2019-05-05T16:38:29.226Z,4.00
2019-05-05T16:40:58.827Z,2.13
2019-05-05T16:43:28.535Z,3.10
2019-05-05T16:45:58.066Z,3.13
2019-05-05T16:48:27.715Z,2.40
2019-05-05T16:50:57.388Z,2.70
2019-05-05T16:53:36.962Z,3.00
2019-05-05T16:56:08.319Z,3.90
2019-05-05T16:58:39.105Z,2.90
2019-05-05T17:01:14.364Z,3.60
2019-05-05T17:03:45.780Z,2.80
2019-05-05T17:06:15.226Z,3.13
2019-05-05T17:08:45.144Z,3.90
2019-05-05T17:11:15.333Z,4.57
2019-05-05T17:14:04.169Z,3.23
2019-05-05T17:16:58.967Z,4.87
2019-05-05T17:19:33.884Z,3.10
2019-05-05T17:22:12.177Z,2.67
2019-05-05T17:24:43.913Z,3.83
2019-05-05T17:27:13.977Z,3.00
2019-05-05T17:29:44.032Z,3.33
2019-05-05T17:32:14.003Z,3.90
2019-05-05T17:34:44.898Z,3.57
2019-05-05T17:37:14.843Z,3.43
2019-05-05T17:39:51.084Z,4.40
2019-05-05T17:42:39.826Z,2.80
2019-05-05T17:45:41.110Z,4.80
2019-05-05T17:48:27.251Z,3.13
2019-05-05T17:51:17.180Z,2.80
2019-05-05T17:53:56.867Z,3.83
2019-05-05T17:56:26.605Z,4.40
2019-05-05T17:58:56.282Z,3.50
2019-05-05T18:01:26.083Z,5.17
2019-05-05T18:03:55.895Z,3.40
2019-05-05T18:06:37.748Z,3.30
2019-05-05T18:09:20.378Z,2.60
2019-05-05T18:12:07.658Z,4.03
2019-05-05T18:14:37.798Z,4.03
2019-05-05T18:17:07.496Z,3.13
2019-05-05T18:19:37.880Z,3.47
2019-05-05T18:22:07.464Z,3.67
2019-05-05T18:24:37.291Z,3.93
2019-05-05T18:27:06.870Z,2.70
2019-05-05T18:29:37.540Z,3.10
2019-05-05T18:32:07.409Z,2.80
2019-05-05T18:34:37.119Z,3.10
2019-05-05T18:37:07.052Z,3.77
2019-05-05T18:39:36.614Z,3.03
2019-05-05T18:42:15.055Z,3.20
2019-05-05T18:44:46.884Z,3.20
2019-05-05T18:47:18.861Z,3.10
2019-05-05T18:49:48.624Z,2.77
2019-05-05T18:52:18.468Z,3.73
2019-05-05T18:54:48.090Z,3.83
2019-05-05T18:57:17.925Z,4.70
2019-05-05T18:59:47.663Z,4.00
2019-05-05T19:02:48.790Z,3.00
2019-05-05T19:05:37.639Z,3.73
2019-05-05T19:08:14.281Z,3.90
2019-05-05T19:10:44.242Z,3.50
2019-05-05T19:13:13.836Z,4.00
2019-05-05T19:15:43.534Z,3.93
2019-05-05T19:18:14.058Z,4.80
2019-05-05T19:20:55.386Z,3.40
2019-05-05T19:23:24.974Z,3.50
2019-05-05T19:25:56.129Z,3.80
2019-05-05T19:28:25.859Z,3.80
2019-05-05T19:30:55.602Z,3.40
2019-05-05T19:33:25.288Z,3.90
2019-05-05T19:35:54.995Z,4.73
2019-05-05T19:38:24.807Z,4.07
2019-05-05T19:40:56.353Z,4.67
2019-05-05T19:43:26.110Z,4.00
2019-05-05T19:45:55.729Z,3.67
2019-05-05T19:48:25.546Z,4.17
2019-05-05T19:51:01.308Z,4.57
2019-05-05T19:53:31.100Z,5.00
2019-05-05T19:56:01.001Z,3.13
2019-05-05T19:58:30.722Z,3.83
2019-05-05T20:01:04.619Z,3.47
2019-05-05T20:03:35.235Z,3.90
2019-05-05T20:06:06.195Z,3.40
2019-05-05T20:08:40.992Z,4.27
2019-05-05T20:11:07.463Z,3.37
2019-05-05T20:13:37.183Z,3.77
2019-05-05T20:16:28.579Z,4.03
2019-05-05T20:18:59.378Z,3.67
2019-05-05T20:21:29.089Z,3.60
2019-05-05T20:23:58.964Z,3.00
2019-05-05T20:26:28.694Z,3.53
2019-05-05T20:29:13.675Z,3.60
2019-05-05T20:31:31.432Z,3.50
2019-05-05T20:34:19.787Z,3.20
2019-05-05T20:37:26.822Z,3.27
2019-05-05T20:39:57.938Z,3.23
2019-05-05T20:42:27.646Z,3.20
2019-05-05T20:44:57.223Z,3.40
2019-05-05T20:47:27.081Z,3.77
2019-05-05T20:49:56.685Z,3.87
2019-05-05T20:52:26.366Z,3.93
2019-05-05T20:54:56.128Z,3.67
2019-05-05T20:57:25.744Z,3.13
2019-05-05T20:59:55.496Z,3.67
2019-05-05T21:02:25.224Z,4.10
2019-05-05T21:04:55.059Z,4.30
2019-05-05T21:07:26.963Z,4.10
2019-05-05T21:09:56.754Z,4.40
2019-05-05T21:12:39.113Z,4.80
2019-05-05T21:14:57.913Z,5.30
2019-05-05T21:17:27.663Z,3.93
2019-05-05T21:19:57.553Z,4.40
2019-05-05T21:22:33.989Z,4.23
2019-05-05T21:25:04.988Z,4.40
2019-05-05T21:27:34.655Z,4.97
2019-05-05T21:30:04.611Z,4.50
2019-05-05T21:32:34.361Z,4.10
2019-05-05T21:35:05.305Z,5.50
2019-05-05T21:37:35.019Z,3.87
2019-05-05T21:40:04.822Z,4.30
2019-05-05T21:42:35.424Z,3.87
2019-05-05T21:45:05.569Z,5.27
2019-05-05T21:47:35.679Z,5.00
2019-05-05T21:50:07.003Z,5.77
2019-05-05T21:52:47.072Z,5.00
2019-05-05T21:55:43.916Z,5.10
2019-05-05T21:58:22.740Z,6.60
2019-05-05T22:01:00.476Z,7.63
2019-05-05T22:03:34.721Z,6.70
2019-05-05T22:06:04.954Z,6.00
2019-05-05T22:08:35.000Z,8.30
2019-05-05T22:11:05.121Z,6.00
2019-05-05T22:13:36.594Z,6.60
2019-05-05T22:16:06.181Z,6.00
2019-05-05T22:18:35.962Z,5.33
2019-05-05T22:21:39.973Z,7.37
2019-05-05T22:24:35.780Z,4.80
2019-05-05T22:27:05.440Z,8.17
2019-05-05T22:29:35.295Z,6.97
2019-05-05T22:32:06.278Z,7.73
2019-05-05T22:34:36.276Z,7.77
2019-05-05T22:37:09.445Z,8.10
2019-05-05T22:39:37.274Z,7.80
2019-05-05T22:42:06.937Z,6.83
2019-05-05T22:44:36.890Z,6.90
2019-05-05T22:47:06.506Z,6.10
2019-05-05T22:49:36.374Z,7.83
2019-05-05T22:52:06.011Z,6.77
2019-05-05T22:54:35.695Z,6.43
2019-05-05T22:57:05.557Z,6.30
2019-05-05T22:59:35.388Z,5.07
2019-05-05T23:02:05.129Z,5.50
2019-05-05T23:04:54.537Z,6.80
2019-05-05T23:07:29.754Z,5.80
2019-05-05T23:09:59.492Z,4.43
2019-05-05T23:12:29.043Z,5.27
2019-05-05T23:14:58.707Z,5.33
2019-05-05T23:17:35.380Z,4.87
2019-05-05T23:20:24.652Z,5.67
2019-05-05T23:23:04.754Z,5.87
2019-05-05T23:25:37.726Z,5.73
2019-05-05T23:28:07.390Z,5.23
2019-05-05T23:30:41.410Z,6.47
2019-05-05T23:33:08.803Z,5.03
2019-05-05T23:35:38.773Z,6.17
2019-05-05T23:38:08.331Z,5.87
2019-05-05T23:40:38.142Z,5.87
2019-05-05T23:43:07.978Z,5.90
2019-05-05T23:45:37.674Z,6.40
2019-05-05T23:48:07.344Z,6.07
2019-05-05T23:50:37.061Z,6.43
2019-05-05T23:53:06.839Z,6.43
2019-05-05T23:55:36.718Z,5.23
2019-05-05T23:58:06.345Z,5.57
